LGAL/AXD METAR and TAF weather

Enter ICAO airport designator
Station Type Date Time Source
LGAL METAR 2020/05/30 05:50 UTC NOAA

LGAL 300550Z 00000KT 9999 FEW025 16/12 Q1015


Station Type Date Time Source
LGAL Decoded METAR 2020/05/30 05:50 UTC NOAA

Alexandroupoli Airport , Greece (LGAL) 40-51N 025-55E 3M
May 30, 2020 - 01:50 AM EDT / 2020.05.30 0550 UTC
Wind: Calm:0
Visibility: greater than 7 mile(s):0
Sky conditions: mostly clear
Temperature: 60 F (16 C)
Dew Point: 53 F (12 C)
Relative Humidity: 77%
Pressure (altimeter): 29.97 in. Hg (1015 hPa)
ob: LGAL 300550Z 00000KT 9999 FEW025 16/12 Q1015
cycle: 6

Station Type Date Time Source
LGAL TAF 2012/09/21 03:06 UTC NOAA

TAF TAF LGAL 210200Z 2103/2115 03012G22KT 9999 FEW020 SCT070 PROB30
TEMPO 2103/2106 6000 RA SCT015 BKN030 PROB30

Example: see airport list